Time;durP1;ratioP1;P1;durP2;ratioP2;P2;SDS_P1;SDS_P2;PMS_P1;PMS_P2;Temp;Humidity;BMP_temperature;BMP_pressure;BME280_temperature;BME280_humidity;BME280_pressure;Samples;Min_cycle;Max_cycle;Signal;HPM_P1;HPM_P2
2022/01/26 00:06:27;;;;;;;41.17;17.75;;;2.80;99.90;;;;;;4974957;28;20201;-78
2022/01/26 00:08:53;;;;;;;40.33;20.17;;;2.90;99.90;;;;;;4975286;28;20189;-79
2022/01/26 00:11:19;;;;;;;37.70;20.00;;;2.90;99.90;;;;;;4973123;28;20213;-79
2022/01/26 00:13:45;;;;;;;33.72;17.67;;;2.90;99.90;;;;;;4973617;28;20653;-79
2022/01/26 00:16:22;;;;;;;37.37;19.70;;;2.90;99.90;;;;;;4973994;28;20204;-79
2022/01/26 00:18:49;;;;;;;35.38;18.40;;;2.90;99.90;;;;;;4973751;28;20323;-80
2022/01/26 00:21:26;;;;;;;34.80;19.30;;;2.80;99.90;;;;;;4973069;28;20184;-80
2022/01/26 00:29:35;;;;;;;38.28;18.67;;;2.60;99.90;;;;;;4973770;28;20255;-80
2022/01/26 00:40:17;;;;;;;34.15;17.38;;;2.70;99.90;;;;;;4974491;28;20247;-79
2022/01/26 00:42:45;;;;;;;40.60;19.50;;;2.60;99.90;;;;;;4974321;28;20203;-79
2022/01/26 00:45:11;;;;;;;44.17;23.73;;;2.70;99.90;;;;;;4974459;28;20196;-78
2022/01/26 00:47:37;;;;;;;41.63;21.60;;;2.60;99.90;;;;;;4974671;28;20189;-80
2022/01/26 00:50:07;;;;;;;45.13;22.43;;;2.70;99.90;;;;;;4974204;28;20553;-80
2022/01/26 00:52:44;;;;;;;38.78;23.42;;;2.70;99.90;;;;;;4974078;28;20473;-79
2022/01/26 00:55:14;;;;;;;47.33;23.30;;;2.80;99.90;;;;;;4973399;28;20259;-80
2022/01/26 00:57:41;;;;;;;38.88;22.33;;;2.80;99.90;;;;;;4974727;28;20734;-81
2022/01/26 01:00:16;;;;;;;46.22;23.35;;;2.70;99.90;;;;;;4973090;28;20198;-79
2022/01/26 01:02:41;;;;;;;48.42;24.58;;;2.70;99.90;;;;;;4973988;28;20192;-80
2022/01/26 01:05:17;;;;;;;43.30;21.13;;;2.70;99.90;;;;;;4974160;28;20184;-79
2022/01/26 01:07:44;;;;;;;48.00;23.92;;;2.70;99.90;;;;;;4973070;28;20641;-79
2022/01/26 01:10:10;;;;;;;46.55;22.67;;;2.80;99.90;;;;;;4973820;28;20807;-79
2022/01/26 01:12:41;;;;;;;55.00;26.40;;;2.80;99.90;;;;;;4972694;28;20230;-79
2022/01/26 01:15:07;;;;;;;45.72;25.08;;;2.80;99.90;;;;;;4974170;28;20183;-79
2022/01/26 01:17:39;;;;;;;50.95;25.85;;;2.80;99.90;;;;;;4974170;28;20177;-79
2022/01/26 01:28:11;;;;;;;54.97;25.88;;;2.70;99.90;;;;;;4974596;28;20198;-79
2022/01/26 01:30:41;;;;;;;58.55;28.60;;;2.70;99.90;;;;;;4973849;28;20216;-81
2022/01/26 01:33:09;;;;;;;51.80;26.67;;;2.70;99.90;;;;;;4972717;28;20260;-79
2022/01/26 01:35:40;;;;;;;62.10;28.80;;;2.80;99.90;;;;;;4974004;28;20187;-79
2022/01/26 01:38:09;;;;;;;63.80;29.02;;;2.70;99.90;;;;;;4974194;28;20200;-80
2022/01/26 01:40:40;;;;;;;54.00;25.40;;;2.80;99.90;;;;;;4972524;28;20259;-79
2022/01/26 01:43:06;;;;;;;55.60;26.85;;;2.80;99.90;;;;;;4973733;28;20206;-80
2022/01/26 01:45:35;;;;;;;66.93;26.48;;;2.80;99.90;;;;;;4974033;28;20204;-80
2022/01/26 01:48:01;;;;;;;61.50;29.08;;;2.90;99.90;;;;;;4974222;28;20545;-79
2022/01/26 01:50:27;;;;;;;59.97;25.52;;;3.00;99.90;;;;;;4976818;28;20207;-79
2022/01/26 01:52:59;;;;;;;58.60;27.20;;;2.80;99.90;;;;;;4957834;28;20236;-79
2022/01/26 01:55:27;;;;;;;60.97;24.77;;;2.80;99.90;;;;;;4958158;29;20185;-79
2022/01/26 01:57:54;;;;;;;64.65;28.08;;;2.90;99.90;;;;;;4958153;28;20184;-81
2022/01/26 02:00:19;;;;;;;60.53;29.58;;;2.80;99.90;;;;;;4958048;28;20191;-80
2022/01/26 02:02:45;;;;;;;61.17;27.67;;;2.80;99.90;;;;;;4975004;28;20310;-79
2022/01/26 02:05:11;;;;;;;63.57;30.00;;;2.80;99.90;;;;;;4977267;28;20621;-82
2022/01/26 02:07:36;;;;;;;77.00;31.03;;;2.80;99.90;;;;;;4977119;28;20182;-78
2022/01/26 02:10:03;;;;;;;64.00;29.53;;;2.80;99.90;;;;;;4977199;28;20194;-79
2022/01/26 02:12:31;;;;;;;60.03;29.40;;;2.80;99.90;;;;;;4976370;28;20569;-79
2022/01/26 02:15:06;;;;;;;57.33;26.15;;;2.80;99.90;;;;;;4977169;28;20264;-78
2022/01/26 02:20:38;;;;;;;67.93;30.03;;;2.80;99.90;;;;;;4976974;28;20184;-80
2022/01/26 02:55:51;;;;;;;69.10;30.00;;;2.60;99.90;;;;;;4976306;28;20191;-79
2022/01/26 03:03:36;;;;;;;62.22;26.67;;;2.70;99.90;;;;;;4976302;28;20186;-79
2022/01/26 03:06:07;;;;;;;66.55;25.70;;;2.60;99.90;;;;;;4975053;28;20179;-79
2022/01/26 03:08:41;;;;;;;65.70;29.00;;;2.70;99.90;;;;;;4976106;28;20180;-80
2022/01/26 03:11:10;;;;;;;70.40;29.90;;;2.80;99.90;;;;;;4975644;28;20201;-79
2022/01/26 03:13:41;;;;;;;71.57;29.75;;;2.70;99.90;;;;;;4975809;28;20183;-80
2022/01/26 03:16:21;;;;;;;70.40;27.58;;;2.70;99.90;;;;;;4975854;28;20286;-79
2022/01/26 03:19:14;;;;;;;63.15;27.80;;;2.60;99.90;;;;;;4975819;28;20173;-80
2022/01/26 03:29:57;;;;;;;62.55;27.38;;;2.50;99.90;;;;;;4974893;28;20250;-80
2022/01/26 03:35:04;;;;;;;66.70;27.30;;;2.50;99.90;;;;;;4976262;28;20182;-80
2022/01/26 03:37:37;;;;;;;68.68;28.63;;;2.60;99.90;;;;;;4975632;28;20178;-80
2022/01/26 03:40:12;;;;;;;73.88;28.95;;;2.60;99.90;;;;;;4975361;28;20238;-79
2022/01/26 03:42:37;;;;;;;65.30;27.75;;;2.60;99.90;;;;;;4973731;28;20230;-80
2022/01/26 03:45:03;;;;;;;76.50;30.23;;;2.60;99.90;;;;;;4975339;28;20227;-80
2022/01/26 03:47:29;;;;;;;74.45;30.42;;;2.60;99.90;;;;;;4974224;28;20187;-80
2022/01/26 03:49:54;;;;;;;79.30;30.60;;;2.70;99.90;;;;;;4975296;28;20219;-79
2022/01/26 03:52:20;;;;;;;77.87;32.37;;;2.70;99.90;;;;;;4974724;28;20208;-79
2022/01/26 03:54:46;;;;;;;72.80;32.23;;;2.60;99.90;;;;;;4975458;28;20179;-82
2022/01/26 03:57:11;;;;;;;78.00;31.10;;;2.70;99.90;;;;;;4975431;28;20558;-79
2022/01/26 03:59:37;;;;;;;66.77;29.07;;;2.60;99.90;;;;;;4975174;28;20201;-78
2022/01/26 04:02:03;;;;;;;79.17;31.60;;;2.70;99.90;;;;;;4973317;28;20241;-80
2022/01/26 04:04:33;;;;;;;63.95;28.77;;;2.80;99.90;;;;;;4973657;28;20621;-78
2022/01/26 04:07:00;;;;;;;72.82;31.90;;;2.80;99.90;;;;;;4975355;28;20554;-80
2022/01/26 04:09:26;;;;;;;69.05;30.30;;;2.80;99.90;;;;;;4974776;28;20189;-79
2022/01/26 04:11:52;;;;;;;73.20;31.07;;;2.70;99.90;;;;;;4973230;28;20239;-80
2022/01/26 04:14:22;;;;;;;76.80;29.20;;;2.70;99.90;;;;;;4974221;28;20182;-78
2022/01/26 04:16:47;;;;;;;69.25;27.88;;;2.70;99.90;;;;;;4974924;28;20181;-80
2022/01/26 04:19:13;;;;;;;66.50;28.20;;;2.70;99.90;;;;;;4973404;28;20192;-80
2022/01/26 04:24:33;;;;;;;71.15;30.25;;;2.70;99.90;;;;;;4974900;28;20183;-79
2022/01/26 04:27:06;;;;;;;77.32;28.90;;;2.60;99.90;;;;;;4974952;28;20214;-80
2022/01/26 04:29:34;;;;;;;73.38;31.58;;;2.60;99.90;;;;;;4974567;28;20586;-79
2022/01/26 04:32:01;;;;;;;75.13;30.27;;;2.60;99.90;;;;;;4974070;28;20236;-80
2022/01/26 04:34:28;;;;;;;68.57;29.88;;;2.60;99.90;;;;;;4957479;28;20206;-80
2022/01/26 04:39:34;;;;;;;82.40;32.00;;;2.60;99.90;;;;;;4974683;28;20526;-79
2022/01/26 04:42:06;;;;;;;79.20;31.40;;;2.60;99.90;;;;;;4974207;28;20234;-79
2022/01/26 04:44:41;;;;;;;70.97;30.90;;;2.70;99.90;;;;;;4973394;28;20681;-79
2022/01/26 04:47:07;;;;;;;79.82;30.75;;;2.60;99.90;;;;;;4974715;28;20218;-80
2022/01/26 04:49:34;;;;;;;74.73;30.20;;;2.70;99.90;;;;;;4974619;28;20258;-78
2022/01/26 04:52:00;;;;;;;68.97;30.85;;;2.70;99.90;;;;;;4973765;28;20228;-78
2022/01/26 04:54:26;;;;;;;74.03;30.02;;;2.70;99.90;;;;;;4973391;28;20180;-77
2022/01/26 04:56:52;;;;;;;81.47;31.77;;;2.80;99.90;;;;;;4974319;28;20187;-78
2022/01/26 04:59:17;;;;;;;75.57;33.20;;;2.70;99.90;;;;;;4974446;28;20178;-78
2022/01/26 05:01:43;;;;;;;74.07;30.60;;;2.70;99.90;;;;;;4973738;28;20208;-78
2022/01/26 05:04:08;;;;;;;94.90;32.60;;;2.70;99.90;;;;;;4974343;28;20173;-79
2022/01/26 05:06:34;;;;;;;81.83;31.63;;;2.60;99.90;;;;;;4974348;28;20622;-78
2022/01/26 05:09:00;;;;;;;94.07;35.13;;;2.50;99.90;;;;;;4972984;28;20283;-80
2022/01/26 05:11:46;;;;;;;75.47;32.37;;;2.60;99.90;;;;;;4956326;28;20218;-77
2022/01/26 05:14:12;;;;;;;81.85;31.00;;;2.60;99.90;;;;;;4974249;28;20183;-77
2022/01/26 05:16:38;;;;;;;91.20;35.23;;;2.70;99.90;;;;;;4974280;28;20188;-78
2022/01/26 05:19:05;;;;;;;75.43;33.70;;;2.60;99.90;;;;;;4974078;28;20186;-78
2022/01/26 05:21:31;;;;;;;86.70;35.05;;;2.50;99.90;;;;;;4973459;28;20204;-79
2022/01/26 05:23:56;;;;;;;87.30;33.97;;;2.50;99.90;;;;;;4974800;28;20254;-78
2022/01/26 05:26:22;;;;;;;73.07;30.40;;;2.60;99.90;;;;;;4978021;28;20506;-77
2022/01/26 05:28:48;;;;;;;92.27;33.93;;;2.60;99.90;;;;;;4976940;28;20273;-78
2022/01/26 05:31:14;;;;;;;94.40;36.00;;;2.60;99.90;;;;;;4977359;28;20215;-78
2022/01/26 05:33:40;;;;;;;79.93;35.00;;;2.60;99.90;;;;;;4977923;28;20526;-78
2022/01/26 05:36:07;;;;;;;87.30;35.72;;;2.50;99.90;;;;;;4977988;28;20422;-77
2022/01/26 05:38:32;;;;;;;74.78;33.80;;;2.50;99.90;;;;;;4977775;28;20173;-79
2022/01/26 05:41:01;;;;;;;77.30;32.27;;;2.50;99.90;;;;;;4976213;28;20219;-79
2022/01/26 05:43:34;;;;;;;70.55;29.67;;;2.40;99.90;;;;;;4977459;28;20177;-79
2022/01/26 05:46:06;;;;;;;77.00;31.95;;;2.50;99.90;;;;;;4978541;28;20231;-78
2022/01/26 05:48:33;;;;;;;70.95;30.30;;;2.50;99.90;;;;;;4977687;28;20176;-80
2022/01/26 05:51:07;;;;;;;61.88;26.38;;;2.50;99.90;;;;;;4977189;28;20211;-79
2022/01/26 05:53:37;;;;;;;76.85;31.65;;;2.50;99.90;;;;;;4978031;28;20210;-80
2022/01/26 05:56:03;;;;;;;75.85;29.15;;;2.40;99.90;;;;;;4976329;28;20277;-79
2022/01/26 05:58:29;;;;;;;76.03;32.40;;;2.40;99.90;;;;;;4977497;28;20172;-78
2022/01/26 06:00:58;;;;;;;61.08;26.25;;;2.40;99.90;;;;;;4976940;28;20192;-80
2022/01/26 06:03:24;;;;;;;78.10;30.45;;;2.40;99.90;;;;;;4977207;28;20229;-79
2022/01/26 06:05:50;;;;;;;81.10;31.60;;;2.50;99.90;;;;;;4977441;28;20253;-79
2022/01/26 06:08:15;;;;;;;71.90;32.33;;;2.50;99.90;;;;;;4977279;28;20827;-78
2022/01/26 06:10:41;;;;;;;72.50;29.90;;;2.40;99.90;;;;;;4976814;28;20215;-78
2022/01/26 06:13:07;;;;;;;82.37;35.23;;;2.40;99.90;;;;;;4976744;28;20250;-79
2022/01/26 06:15:32;;;;;;;80.35;33.45;;;2.40;99.90;;;;;;4976986;28;20184;-79
2022/01/26 06:17:58;;;;;;;63.47;27.00;;;2.40;99.90;;;;;;4975990;28;20201;-77
2022/01/26 06:20:24;;;;;;;72.13;32.93;;;2.40;99.90;;;;;;4975500;28;20198;-77
2022/01/26 06:22:49;;;;;;;84.17;31.80;;;2.30;99.90;;;;;;4976589;28;20283;-78
2022/01/26 06:25:15;;;;;;;67.47;31.20;;;2.30;99.90;;;;;;4975774;28;20187;-78
2022/01/26 06:27:43;;;;;;;76.80;29.95;;;2.30;99.90;;;;;;4976664;28;20632;-78
2022/01/26 06:30:11;;;;;;;78.03;32.58;;;2.10;99.90;;;;;;4975054;28;20323;-78
2022/01/26 06:32:37;;;;;;;76.35;31.40;;;2.20;99.90;;;;;;4976731;28;20278;-79
2022/01/26 06:35:06;;;;;;;72.90;31.10;;;2.20;99.90;;;;;;4976717;28;20179;-77
2022/01/26 06:37:31;;;;;;;69.40;30.33;;;2.20;99.90;;;;;;4976379;28;20180;-79
2022/01/26 06:39:57;;;;;;;74.93;31.53;;;2.20;99.90;;;;;;4976749;28;20191;-78
2022/01/26 06:42:27;;;;;;;82.47;32.90;;;2.20;99.90;;;;;;4976303;28;20213;-77
2022/01/26 06:49:59;;;;;;;79.00;33.05;;;2.30;99.90;;;;;;4975405;28;20182;-77
2022/01/26 06:52:24;;;;;;;76.73;31.70;;;2.20;99.90;;;;;;4976047;28;20567;-77
2022/01/26 06:54:50;;;;;;;88.23;33.87;;;2.20;99.90;;;;;;4975141;28;20191;-78
2022/01/26 06:57:16;;;;;;;98.23;36.13;;;2.20;99.90;;;;;;4976419;28;20260;-79
2022/01/26 06:59:41;;;;;;;78.17;35.83;;;2.20;99.90;;;;;;4974882;28;20176;-77
2022/01/26 07:02:07;;;;;;;80.17;34.43;;;2.20;99.90;;;;;;4976039;28;20208;-78
2022/01/26 07:04:33;;;;;;;75.10;31.63;;;2.20;99.90;;;;;;4976586;28;20181;-79
2022/01/26 07:06:59;;;;;;;76.77;33.10;;;2.20;99.90;;;;;;4976514;28;20190;-78
2022/01/26 07:09:24;;;;;;;82.07;31.73;;;2.30;99.90;;;;;;4976762;28;20570;-79
2022/01/26 07:11:50;;;;;;;72.00;28.87;;;2.20;99.90;;;;;;4975639;28;20267;-78
2022/01/26 07:19:44;;;;;;;88.77;33.67;;;2.20;99.90;;;;;;4976036;28;20201;-78
2022/01/26 07:22:47;;;;;;;91.97;36.53;;;2.20;99.90;;;;;;4956511;28;20742;-78
2022/01/26 07:25:13;;;;;;;97.17;38.50;;;2.20;99.90;;;;;;4974510;28;20192;-77
2022/01/26 07:27:40;;;;;;;103.00;38.83;;;2.30;99.90;;;;;;4975786;28;20175;-78
2022/01/26 07:30:07;;;;;;;120.60;37.92;;;2.20;99.90;;;;;;4975677;28;20558;-79
2022/01/26 07:32:35;;;;;;;109.78;40.92;;;2.20;99.90;;;;;;4975354;28;20223;-78
2022/01/26 07:35:01;;;;;;;110.65;37.85;;;2.20;99.90;;;;;;4975788;28;20173;-79
2022/01/26 07:37:26;;;;;;;113.40;39.03;;;2.20;99.90;;;;;;4975289;28;20322;-79
2022/01/26 07:40:06;;;;;;;98.23;36.50;;;2.30;99.90;;;;;;4975831;28;20185;-79
2022/01/26 07:42:33;;;;;;;112.32;37.83;;;2.30;99.90;;;;;;4975152;28;20664;-79
2022/01/26 07:45:00;;;;;;;109.18;38.90;;;2.40;99.90;;;;;;4975594;28;20201;-80
2022/01/26 07:47:26;;;;;;;102.50;36.40;;;2.30;99.90;;;;;;4975427;28;20179;-79
2022/01/26 07:49:55;;;;;;;97.40;38.13;;;2.40;99.90;;;;;;4975372;28;20185;-79
2022/01/26 07:52:20;;;;;;;94.13;34.35;;;2.20;99.90;;;;;;4974750;28;20211;-77
2022/01/26 07:54:50;;;;;;;96.20;32.43;;;2.20;99.90;;;;;;4974079;28;20188;-79
2022/01/26 07:57:16;;;;;;;85.57;33.15;;;2.20;99.90;;;;;;4975245;28;20177;-79
2022/01/26 07:59:42;;;;;;;85.13;34.30;;;2.20;99.90;;;;;;4975360;28;20191;-78
2022/01/26 08:02:08;;;;;;;91.40;33.50;;;2.30;99.90;;;;;;4974723;28;20207;-79
2022/01/26 08:04:33;;;;;;;100.30;36.20;;;2.20;99.90;;;;;;4975043;28;20629;-79
2022/01/26 08:06:59;;;;;;;99.07;36.57;;;2.30;99.90;;;;;;4976850;28;20191;-79
2022/01/26 08:09:24;;;;;;;87.97;34.83;;;2.30;99.90;;;;;;4973676;28;20191;-78
2022/01/26 08:11:50;;;;;;;96.90;36.40;;;2.30;99.90;;;;;;4974406;28;20212;-78
2022/01/26 08:14:16;;;;;;;87.90;34.93;;;2.30;99.90;;;;;;4973679;28;20185;-79
2022/01/26 08:16:41;;;;;;;81.20;33.93;;;2.40;99.90;;;;;;4975091;28;20262;-77
2022/01/26 08:19:08;;;;;;;89.20;33.17;;;2.50;99.90;;;;;;4973778;28;20180;-79
2022/01/26 08:21:33;;;;;;;93.10;31.90;;;2.40;99.90;;;;;;4973133;28;20210;-78
2022/01/26 08:24:03;;;;;;;91.90;33.90;;;2.40;99.90;;;;;;4974721;28;20184;-79
2022/01/26 08:26:42;;;;;;;98.57;34.95;;;2.30;99.90;;;;;;4973503;28;20335;-78
2022/01/26 08:29:14;;;;;;;90.45;37.08;;;2.20;99.90;;;;;;4974715;28;20187;-79
2022/01/26 08:31:40;;;;;;;86.97;33.25;;;2.20;99.90;;;;;;4974498;28;20554;-78
2022/01/26 08:34:06;;;;;;;102.23;38.40;;;2.30;99.90;;;;;;4974075;28;20190;-78
2022/01/26 08:36:32;;;;;;;108.57;34.85;;;2.30;99.90;;;;;;4975127;28;20176;-79
2022/01/26 08:38:57;;;;;;;99.50;32.60;;;2.30;99.90;;;;;;4957819;28;20545;-78
2022/01/26 08:41:23;;;;;;;111.57;37.87;;;2.30;99.90;;;;;;4974178;28;20202;-78
2022/01/26 08:43:49;;;;;;;105.97;35.90;;;2.30;99.90;;;;;;4973332;28;20625;-78
2022/01/26 08:46:17;;;;;;;101.03;37.67;;;2.30;99.90;;;;;;4974647;28;20633;-78
2022/01/26 08:48:43;;;;;;;85.80;32.67;;;2.30;99.90;;;;;;4974341;28;20192;-80
2022/01/26 08:51:09;;;;;;;92.33;33.77;;;2.30;99.90;;;;;;4974353;28;20217;-77
2022/01/26 08:53:34;;;;;;;91.73;33.27;;;2.40;99.90;;;;;;4974539;28;20180;-78
2022/01/26 08:56:00;;;;;;;95.83;34.60;;;2.50;99.90;;;;;;4974544;28;20265;-78
2022/01/26 08:58:25;;;;;;;91.30;36.23;;;2.40;99.90;;;;;;4975414;28;20184;-78
2022/01/26 09:00:51;;;;;;;87.30;32.83;;;2.40;99.90;;;;;;4980389;28;20231;-79
2022/01/26 09:03:17;;;;;;;91.23;35.60;;;2.40;99.90;;;;;;4980813;28;20633;-79
2022/01/26 09:05:42;;;;;;;91.00;34.97;;;2.50;99.90;;;;;;4980798;28;20185;-77
2022/01/26 09:08:08;;;;;;;98.47;36.20;;;2.50;99.90;;;;;;4980938;28;20241;-78
2022/01/26 09:10:34;;;;;;;99.97;36.23;;;2.50;99.90;;;;;;4980461;28;20299;-77
2022/01/26 09:13:01;;;;;;;85.68;34.80;;;2.30;99.90;;;;;;4980286;28;20197;-78
2022/01/26 09:15:29;;;;;;;103.20;32.28;;;2.40;99.90;;;;;;4979494;28;20180;-77
2022/01/26 09:17:58;;;;;;;107.57;35.30;;;2.40;99.90;;;;;;4980718;28;20255;-79
2022/01/26 09:20:23;;;;;;;109.88;37.83;;;2.40;99.90;;;;;;4980680;28;20187;-78
2022/01/26 09:22:49;;;;;;;105.17;36.70;;;2.30;99.90;;;;;;4979019;28;20547;-79
2022/01/26 09:25:14;;;;;;;109.87;37.60;;;2.40;99.90;;;;;;4980483;28;20190;-77
2022/01/26 09:27:41;;;;;;;104.10;37.63;;;2.50;99.90;;;;;;4979556;28;20196;-79
2022/01/26 09:30:07;;;;;;;105.03;35.15;;;2.60;99.90;;;;;;4980517;28;20267;-77
2022/01/26 09:32:33;;;;;;;112.10;37.55;;;2.40;99.90;;;;;;4978842;28;20687;-77
2022/01/26 09:34:59;;;;;;;96.80;34.80;;;2.50;99.90;;;;;;4980312;28;20211;-77
2022/01/26 09:37:24;;;;;;;97.13;33.07;;;2.50;99.90;;;;;;4980587;28;20187;-78
2022/01/26 09:39:50;;;;;;;98.53;33.03;;;2.70;99.90;;;;;;4980660;28;20261;-79
2022/01/26 09:42:16;;;;;;;113.80;36.20;;;2.60;99.90;;;;;;4980290;28;20275;-79
2022/01/26 09:44:43;;;;;;;94.95;32.58;;;2.40;99.90;;;;;;4980399;28;20197;-78
2022/01/26 09:47:10;;;;;;;115.65;35.72;;;2.40;99.90;;;;;;4980428;28;20209;-77
2022/01/26 09:49:36;;;;;;;93.35;33.45;;;2.40;99.90;;;;;;4979413;28;20274;-79
2022/01/26 09:52:06;;;;;;;94.18;34.88;;;2.30;99.90;;;;;;4980126;28;20315;-80
2022/01/26 09:54:32;;;;;;;102.60;36.20;;;2.40;99.90;;;;;;4980434;28;20185;-78
2022/01/26 09:57:03;;;;;;;97.65;32.28;;;2.40;99.90;;;;;;4980239;28;20197;-79
2022/01/26 09:59:30;;;;;;;112.22;37.33;;;2.40;99.90;;;;;;4979034;28;20177;-77
2022/01/26 10:01:56;;;;;;;89.28;31.52;;;2.40;99.90;;;;;;4970436;28;20212;-77
2022/01/26 10:04:35;;;;;;;110.23;36.87;;;2.40;99.90;;;;;;4969896;28;20207;-77
2022/01/26 10:15:37;;;;;;;93.22;31.38;;;2.40;99.90;;;;;;4965583;28;20190;-79
2022/01/26 10:18:13;;;;;;;117.25;35.55;;;2.40;99.90;;;;;;4965509;28;20173;-77
2022/01/26 10:20:45;;;;;;;123.40;37.65;;;2.50;99.90;;;;;;4966050;28;20296;-77
2022/01/26 10:23:20;;;;;;;123.20;41.40;;;2.50;99.90;;;;;;4965225;28;20214;-78
2022/01/26 10:25:59;;;;;;;101.95;34.33;;;2.50;99.90;;;;;;4963705;28;20182;-78
2022/01/26 10:28:55;;;;;;;123.95;39.00;;;2.60;99.90;;;;;;4957651;28;20230;-78
2022/01/26 10:31:30;;;;;;;119.10;38.90;;;2.60;99.90;;;;;;4921497;28;20749;-81
2022/01/26 10:33:58;;;;;;;108.43;36.58;;;2.70;99.90;;;;;;4963647;28;20602;-78
2022/01/26 10:36:37;;;;;;;119.65;35.40;;;2.60;99.90;;;;;;4957730;28;20251;-79
2022/01/26 10:39:09;;;;;;;107.80;37.70;;;2.60;99.90;;;;;;4957754;28;20239;-78
2022/01/26 10:41:40;;;;;;;102.38;34.70;;;2.60;99.90;;;;;;4962798;28;20567;-78
2022/01/26 10:44:06;;;;;;;102.10;33.35;;;2.60;99.90;;;;;;4976974;28;20199;-78
2022/01/26 10:46:36;;;;;;;120.25;38.90;;;2.60;99.90;;;;;;4963317;28;20562;-78
2022/01/26 10:51:53;;;;;;;102.85;33.90;;;2.60;99.90;;;;;;4957198;28;20259;-80
2022/01/26 10:54:36;;;;;;;101.75;33.95;;;2.50;99.90;;;;;;4957785;28;20201;-79
2022/01/26 10:57:12;;;;;;;99.20;33.22;;;2.60;99.90;;;;;;4957730;28;20173;-80
2022/01/26 10:59:44;;;;;;;116.80;32.85;;;2.70;99.90;;;;;;4957354;28;20515;-79
2022/01/26 11:02:11;;;;;;;106.35;32.75;;;2.80;99.90;;;;;;4964805;28;20229;-77
2022/01/26 11:04:39;;;;;;;101.57;35.30;;;2.90;99.90;;;;;;4967938;28;20232;-78
2022/01/26 11:07:08;;;;;;;100.63;34.95;;;2.90;99.90;;;;;;4965638;28;20518;-79
2022/01/26 11:09:36;;;;;;;104.97;32.17;;;2.80;99.90;;;;;;4969999;28;20211;-79
2022/01/26 11:12:13;;;;;;;97.32;33.80;;;2.90;99.90;;;;;;4975739;28;20213;-78
2022/01/26 11:14:50;;;;;;;98.88;33.03;;;2.90;99.90;;;;;;4975038;28;20192;-78
2022/01/26 11:17:33;;;;;;;95.78;31.02;;;3.00;99.90;;;;;;4976134;28;20200;-77
2022/01/26 11:20:00;;;;;;;96.40;30.33;;;3.00;99.90;;;;;;4976282;28;20201;-79
2022/01/26 11:22:28;;;;;;;100.80;35.42;;;2.90;99.90;;;;;;4975319;28;20200;-78
2022/01/26 11:25:06;;;;;;;89.70;31.33;;;2.90;99.90;;;;;;4976110;28;20203;-78
2022/01/26 11:27:36;;;;;;;80.80;29.60;;;2.90;99.90;;;;;;4975857;28;20180;-79
2022/01/26 11:30:15;;;;;;;86.03;27.13;;;2.80;99.90;;;;;;4975950;28;20177;-78
2022/01/26 11:32:50;;;;;;;71.85;27.00;;;2.80;99.90;;;;;;4975579;28;20746;-78
2022/01/26 11:35:17;;;;;;;66.82;24.58;;;2.80;99.90;;;;;;4976097;28;20230;-77
2022/01/26 11:37:48;;;;;;;75.18;27.13;;;2.80;99.90;;;;;;4975819;28;20203;-80
2022/01/26 11:46:08;;;;;;;73.22;25.17;;;2.80;99.90;;;;;;4975878;28;20226;-78
2022/01/26 11:48:34;;;;;;;70.93;26.65;;;2.80;99.90;;;;;;4974569;28;20175;-81
2022/01/26 11:51:02;;;;;;;67.43;24.77;;;2.80;99.90;;;;;;4974936;28;20694;-80
2022/01/26 11:53:29;;;;;;;68.10;25.95;;;2.90;99.90;;;;;;4975555;28;20171;-78
2022/01/26 11:56:07;;;;;;;66.78;26.20;;;2.90;99.90;;;;;;4975260;28;20206;-79
2022/01/26 11:58:41;;;;;;;62.30;25.85;;;2.90;99.90;;;;;;4974149;28;20221;-81
2022/01/26 12:01:31;;;;;;;64.53;24.40;;;2.90;99.90;;;;;;4956122;28;20177;-79
2022/01/26 12:04:11;;;;;;;55.45;23.05;;;3.00;99.90;;;;;;4955437;29;20201;-81
2022/01/26 12:06:47;;;;;;;63.53;25.38;;;2.90;99.90;;;;;;4956190;28;20580;-80
2022/01/26 12:09:12;;;;;;;57.00;23.92;;;2.90;99.90;;;;;;4956204;28;20241;-78
2022/01/26 12:11:38;;;;;;;51.43;20.40;;;2.90;99.90;;;;;;4960418;28;20219;-80
2022/01/26 12:14:06;;;;;;;67.20;25.13;;;2.80;99.90;;;;;;4955689;29;20191;-78
2022/01/26 12:16:43;;;;;;;68.55;26.02;;;2.80;99.90;;;;;;4954514;29;20646;-79
2022/01/26 12:36:01;;;;;;;50.60;23.85;;;2.80;99.90;;;;;;4955508;28;20182;-80
2022/01/26 12:41:17;;;;;;;58.72;23.42;;;2.90;99.90;;;;;;4955160;28;20177;-80
2022/01/26 12:43:47;;;;;;;63.83;26.15;;;2.90;99.90;;;;;;4960283;28;20262;-80
2022/01/26 12:46:33;;;;;;;61.20;26.65;;;2.90;99.90;;;;;;4957703;28;20654;-79
2022/01/26 12:49:24;;;;;;;62.55;23.10;;;2.80;99.90;;;;;;4959119;28;20252;-78
2022/01/26 12:51:51;;;;;;;59.25;23.52;;;2.90;99.90;;;;;;4954880;28;20213;-80
2022/01/26 12:54:18;;;;;;;61.95;24.73;;;2.90;99.90;;;;;;4955038;28;20192;-81
2022/01/26 12:56:43;;;;;;;73.85;27.92;;;2.90;99.90;;;;;;4955071;28;20206;-79
2022/01/26 12:59:19;;;;;;;70.30;25.50;;;2.90;99.90;;;;;;4955125;29;20209;-79
2022/01/26 13:01:46;;;;;;;56.95;23.88;;;3.00;99.90;;;;;;4954559;28;20559;-78
2022/01/26 13:04:14;;;;;;;67.75;27.80;;;3.00;99.90;;;;;;4955221;28;20485;-78
2022/01/26 13:06:45;;;;;;;63.60;24.02;;;3.00;99.90;;;;;;4954914;28;20212;-77
2022/01/26 13:09:16;;;;;;;61.22;24.42;;;3.00;99.90;;;;;;4953986;29;20181;-77
2022/01/26 13:11:50;;;;;;;59.83;22.08;;;3.00;99.90;;;;;;4954711;29;20240;-79
2022/01/26 13:14:30;;;;;;;62.22;24.35;;;2.90;99.90;;;;;;4965680;28;20184;-79
2022/01/26 13:17:14;;;;;;;63.53;24.88;;;2.90;99.90;;;;;;4974107;28;20543;-78
2022/01/26 13:23:10;;;;;;;63.67;24.50;;;2.90;99.90;;;;;;4968262;28;20551;-78
2022/01/26 13:36:47;;;;;;;65.53;25.95;;;2.90;99.90;;;;;;4955072;28;20212;-79
2022/01/26 13:39:16;;;;;;;68.50;25.35;;;3.10;99.90;;;;;;4946700;29;20705;-80
2022/01/26 13:47:25;;;;;;;74.32;25.73;;;3.10;99.90;;;;;;4958494;29;20183;-80
2022/01/26 13:52:44;;;;;;;63.90;25.17;;;3.00;99.90;;;;;;4960213;28;20236;-80
2022/01/26 14:00:22;;;;;;;64.97;26.65;;;2.90;99.90;;;;;;4966482;28;20189;-80
2022/01/26 14:02:53;;;;;;;66.15;26.27;;;3.10;99.90;;;;;;4958487;28;20223;-79
2022/01/26 14:05:19;;;;;;;53.75;21.17;;;2.90;99.90;;;;;;4957418;29;20536;-80
2022/01/26 14:07:44;;;;;;;62.20;27.33;;;2.90;99.90;;;;;;4957294;29;20181;-79
2022/01/26 14:10:10;;;;;;;64.73;25.87;;;2.90;99.90;;;;;;4958375;29;20186;-79
2022/01/26 14:12:40;;;;;;;64.63;25.83;;;2.90;99.90;;;;;;4957150;29;20592;-79
2022/01/26 14:15:08;;;;;;;61.60;24.88;;;3.00;99.90;;;;;;4959600;28;20417;-79
2022/01/26 14:20:15;;;;;;;73.10;27.05;;;3.10;99.90;;;;;;4965860;28;20283;-80
2022/01/26 14:23:14;;;;;;;70.45;25.27;;;3.00;99.90;;;;;;4968364;28;20201;-81
2022/01/26 14:25:42;;;;;;;62.33;25.88;;;3.00;99.90;;;;;;4966203;28;20181;-80
2022/01/26 14:28:13;;;;;;;75.03;26.55;;;3.00;99.90;;;;;;4965853;28;20195;-78
2022/01/26 14:31:04;;;;;;;73.32;28.10;;;2.90;99.90;;;;;;4967450;28;20205;-78
2022/01/26 14:36:28;;;;;;;64.35;24.65;;;2.90;99.90;;;;;;4976198;28;20551;-80
2022/01/26 14:53:32;;;;;;;63.13;23.75;;;2.90;99.90;;;;;;4975622;28;20274;-80
2022/01/26 15:44:21;;;;;;;64.37;25.03;;;2.80;99.90;;;;;;4975519;28;20205;-80
2022/01/26 15:49:45;;;;;;;48.25;23.15;;;2.90;99.90;;;;;;4976026;28;20216;-78
2022/01/26 15:52:37;;;;;;;54.10;21.73;;;3.00;99.90;;;;;;4974677;28;20295;-79
2022/01/26 16:06:02;;;;;;;57.13;26.27;;;2.80;99.90;;;;;;4974507;28;20192;-79
2022/01/26 16:12:40;;;;;;;61.03;24.75;;;3.00;99.90;;;;;;4975217;28;20171;-79
2022/01/26 16:17:10;;;;;;;59.83;26.65;;;2.90;99.90;;;;;;4974492;28;20691;-80
2022/01/26 16:20:04;;;;;;;57.13;24.20;;;2.90;99.90;;;;;;4974867;28;21023;-78
2022/01/26 17:37:45;;;;;;;48.65;20.95;;;2.70;99.90;;;;;;4975907;28;20216;-80
2022/01/26 18:49:33;;;;;;;46.35;18.20;;;2.50;99.90;;;;;;4974452;28;21000;-77
2022/01/26 18:52:00;;;;;;;39.72;19.35;;;2.60;99.90;;;;;;4974828;28;20315;-79
2022/01/26 18:54:28;;;;;;;38.53;18.25;;;2.70;99.90;;;;;;4975523;28;20177;-80
2022/01/26 18:56:56;;;;;;;43.45;18.65;;;2.60;99.90;;;;;;4975518;28;20169;-78
2022/01/26 18:59:23;;;;;;;40.10;17.98;;;2.70;99.90;;;;;;4975402;28;20187;-81
2022/01/26 19:01:52;;;;;;;45.92;18.42;;;2.70;99.90;;;;;;4974487;28;20205;-80
2022/01/26 19:04:24;;;;;;;36.80;16.08;;;2.70;99.90;;;;;;4975577;28;20194;-80
2022/01/26 19:06:52;;;;;;;37.95;16.80;;;2.60;99.90;;;;;;4974055;28;20271;-80
2022/01/26 19:09:22;;;;;;;40.00;17.63;;;2.70;99.90;;;;;;4975236;28;20189;-80
2022/01/26 19:11:48;;;;;;;34.47;16.25;;;2.70;99.90;;;;;;4973191;28;20647;-78
2022/01/26 19:14:13;;;;;;;40.03;17.00;;;2.80;99.90;;;;;;4975140;28;20250;-80
2022/01/26 19:16:46;;;;;;;34.33;16.67;;;2.70;99.90;;;;;;4975151;28;20173;-79
2022/01/26 19:24:36;;;;;;;38.58;17.45;;;2.70;99.90;;;;;;4975208;28;20801;-78